Time;durP1;ratioP1;P1;durP2;ratioP2;P2;SDS_P1;SDS_P2;PMS_P1;PMS_P2;Temp;Humidity;BMP_temperature;BMP_pressure;BME280_temperature;BME280_humidity;BME280_pressure;Samples;Min_cycle;Max_cycle;Signal;HPM_P1;HPM_P2
2022/04/16 00:01:43;;;;;;;16.23;9.05;;;8.60;99.90;;;;;;4926904;28;20046;-64
2022/04/16 00:04:10;;;;;;;9.93;8.20;;;8.60;99.90;;;;;;4926655;28;20046;-63
2022/04/16 00:06:38;;;;;;;12.13;9.07;;;8.50;99.90;;;;;;4923076;28;20737;-64
2022/04/16 00:09:05;;;;;;;9.93;7.72;;;8.40;99.90;;;;;;4924383;28;20548;-64
2022/04/16 00:11:33;;;;;;;11.00;8.65;;;8.40;99.90;;;;;;4921989;28;20169;-64
2022/04/16 00:13:59;;;;;;;8.73;7.03;;;8.40;99.90;;;;;;4924596;28;20674;-64
2022/04/16 00:16:26;;;;;;;;;;;8.30;99.90;;;;;;4925401;28;20153;-64
2022/04/16 00:18:56;;;;;;;9.82;8.63;;;8.30;99.90;;;;;;4925905;28;20197;-65
2022/04/16 00:21:24;;;;;;;10.32;7.97;;;8.30;99.90;;;;;;4924528;28;20141;-65
2022/04/16 00:23:53;;;;;;;13.10;10.20;;;8.30;99.90;;;;;;4923221;28;20357;-64
2022/04/16 00:26:21;;;;;;;12.82;8.48;;;8.20;99.90;;;;;;4924393;28;20214;-64
2022/04/16 00:28:51;;;;;;;10.43;8.48;;;8.20;99.90;;;;;;4926252;28;20046;-64
2022/04/16 00:31:18;;;;;;;14.73;9.45;;;8.10;99.90;;;;;;4924925;28;20038;-64
2022/04/16 00:33:46;;;;;;;15.63;11.15;;;8.10;99.90;;;;;;4924058;28;20482;-64
2022/04/16 00:36:14;;;;;;;18.80;11.52;;;8.10;99.90;;;;;;4925432;28;20058;-64
2022/04/16 00:38:42;;;;;;;15.35;10.05;;;8.00;99.90;;;;;;4920670;28;20066;-63
2022/04/16 00:41:11;;;;;;;15.38;10.07;;;8.00;99.90;;;;;;4924437;28;20689;-64
2022/04/16 00:43:38;;;;;;;13.70;9.75;;;7.90;99.90;;;;;;4924208;28;20606;-64
2022/04/16 00:46:05;;;;;;;14.02;10.30;;;7.90;99.90;;;;;;4887662;28;1108042;-64
2022/04/16 00:48:32;;;;;;;15.95;11.48;;;7.90;99.90;;;;;;4925346;28;20378;-64
2022/04/16 00:50:59;;;;;;;14.57;10.30;;;7.90;99.90;;;;;;4924923;28;20104;-64
2022/04/16 00:53:27;;;;;;;18.55;9.88;;;7.90;99.90;;;;;;4926017;28;20448;-64
2022/04/16 00:55:56;;;;;;;15.82;10.52;;;7.80;99.90;;;;;;4926216;28;20276;-64
2022/04/16 00:58:23;;;;;;;15.57;11.48;;;7.80;99.90;;;;;;4922526;28;20456;-64
2022/04/16 01:00:50;;;;;;;16.15;9.82;;;7.70;99.90;;;;;;4924635;28;20046;-64
2022/04/16 01:03:17;;;;;;;19.95;10.98;;;7.70;99.90;;;;;;4922379;28;20335;-64
2022/04/16 01:05:44;;;;;;;14.85;10.32;;;7.70;99.90;;;;;;4926917;28;20042;-64
2022/04/16 01:08:11;;;;;;;;;;;7.60;99.90;;;;;;4924059;28;20364;-64
2022/04/16 01:10:38;;;;;;;12.85;9.00;;;7.60;99.90;;;;;;4922128;28;20793;-64
2022/04/16 01:13:05;;;;;;;;;;;7.60;99.90;;;;;;4924591;28;20358;-64
2022/04/16 01:15:33;;;;;;;15.40;10.68;;;7.60;99.90;;;;;;4926323;28;19926;-63
2022/04/16 01:18:02;;;;;;;13.82;9.13;;;7.50;99.90;;;;;;4906601;28;20046;-63
2022/04/16 01:20:37;;;;;;;15.27;9.98;;;7.50;99.90;;;;;;4906982;28;20422;-64
2022/04/16 01:23:05;;;;;;;14.63;8.45;;;7.50;99.90;;;;;;4907486;28;20789;-64
2022/04/16 01:25:35;;;;;;;12.55;10.00;;;7.50;99.90;;;;;;4907091;28;20701;-64
2022/04/16 01:28:04;;;;;;;15.80;9.30;;;7.40;99.90;;;;;;4903062;28;21091;-63
2022/04/16 01:30:31;;;;;;;19.17;10.23;;;7.40;99.90;;;;;;4909339;28;20038;-64
2022/04/16 01:32:58;;;;;;;11.30;9.00;;;7.30;99.90;;;;;;4926057;28;20675;-64
2022/04/16 01:35:24;;;;;;;;;;;7.30;99.90;;;;;;4928022;28;20613;-64
2022/04/16 01:37:51;;;;;;;8.90;7.82;;;7.30;99.90;;;;;;4924765;28;20286;-64
2022/04/16 01:40:20;;;;;;;14.95;7.68;;;7.30;99.90;;;;;;4922879;28;20951;-63
2022/04/16 01:42:48;;;;;;;11.48;7.88;;;7.20;99.90;;;;;;4925318;28;20586;-64
2022/04/16 01:45:18;;;;;;;18.23;10.82;;;7.20;99.90;;;;;;4926031;28;20579;-64
2022/04/16 01:47:46;;;;;;;12.18;9.18;;;7.20;99.90;;;;;;4927966;28;20042;-64
2022/04/16 01:50:14;;;;;;;14.38;9.32;;;7.10;99.90;;;;;;4928984;28;20201;-63
2022/04/16 01:52:41;;;;;;;11.07;9.68;;;7.10;99.90;;;;;;4929404;28;20387;-64
2022/04/16 01:55:09;;;;;;;11.48;9.30;;;7.10;99.90;;;;;;4911341;28;20043;-63
2022/04/16 01:57:37;;;;;;;13.25;8.70;;;7.00;99.90;;;;;;4909310;28;20050;-63
2022/04/16 02:00:07;;;;;;;12.70;8.23;;;7.00;99.90;;;;;;4912922;28;20046;-63
2022/04/16 02:02:36;;;;;;;16.65;10.43;;;7.00;99.90;;;;;;4930212;28;20206;-63
2022/04/16 02:05:05;;;;;;;15.35;10.48;;;7.00;99.90;;;;;;4928519;28;20069;-64
2022/04/16 02:07:32;;;;;;;18.15;11.70;;;6.90;99.90;;;;;;4926415;28;20046;-63
2022/04/16 02:10:00;;;;;;;24.83;13.77;;;6.90;99.90;;;;;;4930454;28;20049;-64
2022/04/16 02:12:27;;;;;;;13.93;11.13;;;6.80;99.90;;;;;;4930007;28;20050;-63
2022/04/16 02:14:55;;;;;;;16.30;10.25;;;6.80;99.90;;;;;;4928857;28;20104;-63
2022/04/16 02:17:23;;;;;;;15.18;10.95;;;6.70;99.90;;;;;;4923893;28;20229;-63
2022/04/16 02:19:50;;;;;;;14.48;10.13;;;6.70;99.90;;;;;;4910933;28;20042;-64
2022/04/16 02:22:17;;;;;;;16.80;11.75;;;6.70;99.90;;;;;;4891358;28;20051;-63
2022/04/16 02:24:46;;;;;;;15.55;12.80;;;6.70;99.90;;;;;;4911357;28;20053;-63
2022/04/16 02:27:14;;;;;;;14.05;11.52;;;6.60;99.90;;;;;;4910330;28;20218;-63
2022/04/16 02:29:43;;;;;;;15.32;11.95;;;6.60;99.90;;;;;;4909149;28;20054;-62
2022/04/16 02:32:11;;;;;;;15.48;10.60;;;6.50;99.90;;;;;;4925764;28;20038;-63
2022/04/16 02:34:38;;;;;;;13.88;10.15;;;6.50;99.90;;;;;;4929953;28;20046;-63
2022/04/16 02:37:05;;;;;;;17.60;12.18;;;6.50;99.90;;;;;;4929349;28;20145;-64
2022/04/16 02:39:32;;;;;;;18.92;11.80;;;6.40;99.90;;;;;;4927599;28;20326;-63
2022/04/16 02:41:59;;;;;;;16.60;12.40;;;6.40;99.90;;;;;;4929375;28;20186;-63
2022/04/16 02:47:25;;;;;;;18.48;12.40;;;6.30;99.90;;;;;;4950220;28;20050;-63
2022/04/16 02:49:52;;;;;;;;;;;6.30;99.90;;;;;;4935507;28;20556;-64
2022/04/16 02:52:20;;;;;;;14.15;10.15;;;6.20;99.90;;;;;;4931759;28;20743;-63
2022/04/16 02:54:47;;;;;;;12.65;9.77;;;6.30;99.90;;;;;;4932538;28;20116;-63
2022/04/16 02:57:15;;;;;;;13.85;9.55;;;6.30;99.90;;;;;;4929318;28;20579;-63
2022/04/16 02:59:41;;;;;;;16.63;8.38;;;6.30;99.90;;;;;;4933532;28;20208;-64
2022/04/16 03:02:11;;;;;;;12.40;8.75;;;6.20;99.90;;;;;;4925471;28;20100;-63
2022/04/16 03:04:37;;;;;;;10.55;7.15;;;6.20;99.90;;;;;;4930661;28;20043;-63
2022/04/16 03:07:05;;;;;;;14.70;9.27;;;6.20;99.90;;;;;;4934820;28;20712;-63
2022/04/16 03:09:32;;;;;;;10.35;8.27;;;6.20;99.90;;;;;;4927938;28;20039;-63
2022/04/16 03:11:59;;;;;;;13.00;8.68;;;6.10;99.90;;;;;;4929927;28;20129;-63
2022/04/16 03:20:06;;;;;;;14.02;9.07;;;6.10;99.90;;;;;;4930267;28;20243;-63
2022/04/16 03:22:34;;;;;;;17.55;10.65;;;6.10;99.90;;;;;;4931476;28;20045;-62
2022/04/16 03:25:07;;;;;;;12.73;9.48;;;6.10;99.90;;;;;;4932626;28;20053;-63
2022/04/16 03:27:34;;;;;;;14.98;9.93;;;6.00;99.90;;;;;;4928375;28;20038;-63
2022/04/16 03:30:01;;;;;;;16.27;11.43;;;6.00;99.90;;;;;;4925821;28;20116;-63
2022/04/16 03:32:28;;;;;;;;;;;6.00;99.90;;;;;;4925423;28;20807;-63
2022/04/16 03:34:56;;;;;;;14.77;10.88;;;6.00;99.90;;;;;;4929759;28;20434;-63
2022/04/16 03:37:27;;;;;;;23.88;12.10;;;5.90;99.90;;;;;;4926646;28;20548;-63
2022/04/16 03:39:54;;;;;;;16.92;13.07;;;5.90;99.90;;;;;;4925126;28;20054;-64
2022/04/16 03:42:21;;;;;;;;;;;5.90;99.90;;;;;;4925223;28;20758;-63
2022/04/16 03:44:48;;;;;;;28.75;14.40;;;5.80;99.90;;;;;;4925822;28;20208;-63
2022/04/16 03:47:14;;;;;;;;;;;5.90;99.90;;;;;;4927429;28;20886;-63
2022/04/16 03:49:41;;;;;;;22.90;14.00;;;5.80;99.90;;;;;;4928785;28;20464;-64
2022/04/16 03:52:09;;;;;;;16.48;13.02;;;5.70;99.90;;;;;;4932290;28;20735;-63
2022/04/16 04:00:08;;;;;;;12.70;10.65;;;5.70;99.90;;;;;;4927813;28;20080;-63
2022/04/16 04:02:39;;;;;;;11.98;8.85;;;5.70;99.90;;;;;;4927465;28;20169;-63
2022/04/16 04:05:07;;;;;;;12.13;9.15;;;5.70;99.90;;;;;;4929469;28;20191;-63
2022/04/16 04:07:34;;;;;;;15.27;9.85;;;5.70;99.90;;;;;;4927338;28;20070;-63
2022/04/16 04:10:02;;;;;;;12.95;9.70;;;5.70;99.90;;;;;;4925246;28;20046;-63
2022/04/16 04:12:29;;;;;;;11.25;9.45;;;5.70;99.90;;;;;;4927692;28;20077;-63
2022/04/16 04:14:56;;;;;;;12.27;9.32;;;5.60;99.90;;;;;;4932865;28;20656;-64
2022/04/16 04:17:23;;;;;;;16.00;11.57;;;5.60;99.90;;;;;;4930951;28;20699;-64
2022/04/16 04:19:50;;;;;;;18.92;11.82;;;5.50;99.90;;;;;;4931610;28;20081;-64
2022/04/16 04:22:17;;;;;;;20.58;12.75;;;5.50;99.90;;;;;;4932962;28;20070;-63
2022/04/16 04:24:45;;;;;;;20.15;13.85;;;5.50;99.90;;;;;;4931685;28;20562;-64
2022/04/16 04:27:12;;;;;;;19.40;12.10;;;5.50;99.90;;;;;;4929786;28;20168;-64
2022/04/16 04:29:41;;;;;;;21.55;12.38;;;5.50;99.90;;;;;;4928534;28;20128;-64
2022/04/16 04:32:08;;;;;;;18.60;12.30;;;5.50;99.90;;;;;;4926574;28;20578;-64
2022/04/16 04:34:35;;;;;;;16.95;13.00;;;5.60;99.90;;;;;;4928612;28;20335;-63
2022/04/16 04:37:03;;;;;;;21.55;14.25;;;5.60;99.90;;;;;;4925846;28;20147;-63
2022/04/16 04:39:30;;;;;;;21.17;12.65;;;5.70;99.90;;;;;;4934152;28;20580;-64
2022/04/16 04:41:57;;;;;;;16.92;13.52;;;5.70;99.90;;;;;;4925080;28;20541;-64
2022/04/16 04:44:24;;;;;;;18.23;13.05;;;5.70;99.90;;;;;;4930901;28;20572;-64
2022/04/16 04:46:53;;;;;;;15.70;11.23;;;5.70;99.90;;;;;;4929459;28;20449;-64
2022/04/16 04:49:20;;;;;;;17.83;10.85;;;5.70;99.90;;;;;;4932098;28;20611;-64
2022/04/16 04:51:48;;;;;;;16.27;11.00;;;5.80;99.90;;;;;;4927709;28;20042;-64
2022/04/16 04:54:15;;;;;;;17.73;11.73;;;5.80;99.90;;;;;;4929528;28;20165;-64
2022/04/16 04:56:42;;;;;;;17.55;11.80;;;5.80;99.90;;;;;;4928605;28;20427;-64
2022/04/16 04:59:10;;;;;;;16.42;11.00;;;5.90;99.90;;;;;;4928579;28;20049;-64
2022/04/16 05:01:37;;;;;;;14.90;10.80;;;6.00;99.90;;;;;;4926501;28;20556;-64
2022/04/16 05:04:04;;;;;;;16.85;12.25;;;6.10;99.90;;;;;;4926671;28;20283;-64
2022/04/16 05:06:31;;;;;;;14.82;12.13;;;6.10;99.90;;;;;;4927107;28;20196;-63
2022/04/16 05:08:58;;;;;;;17.80;13.50;;;6.20;99.90;;;;;;4943181;28;20387;-65
2022/04/16 05:11:25;;;;;;;;;;;6.20;99.90;;;;;;4927589;28;20046;-55
2022/04/16 05:13:52;;;;;;;22.70;14.40;;;6.30;99.90;;;;;;4928241;28;19941;-57
2022/04/16 05:16:19;;;;;;;;;;;6.40;99.90;;;;;;4929813;28;20555;-58
2022/04/16 05:18:46;;;;;;;18.92;13.23;;;6.40;99.90;;;;;;4927998;28;20643;-55
2022/04/16 05:21:13;;;;;;;18.02;13.15;;;6.50;99.90;;;;;;4928550;28;20406;-55
2022/04/16 05:23:40;;;;;;;18.42;13.10;;;6.60;99.90;;;;;;4914231;28;20556;-57
2022/04/16 05:26:09;;;;;;;20.75;13.70;;;6.60;99.90;;;;;;4933760;28;20046;-55
2022/04/16 05:28:36;;;;;;;17.33;12.13;;;6.70;99.90;;;;;;4928488;28;20046;-56
2022/04/16 05:31:05;;;;;;;17.67;12.77;;;6.80;99.90;;;;;;4929786;28;20407;-57
2022/04/16 05:36:18;;;;;;;17.75;13.00;;;6.90;99.90;;;;;;4928531;28;20553;-59
2022/04/16 05:38:46;;;;;;;19.63;12.30;;;6.90;99.90;;;;;;4926444;28;20046;-60
2022/04/16 05:41:13;;;;;;;17.15;13.13;;;7.00;99.90;;;;;;4929634;28;20155;-64
2022/04/16 05:43:41;;;;;;;17.05;11.43;;;7.00;99.90;;;;;;4926048;28;20847;-60
2022/04/16 05:46:08;;;;;;;18.52;13.10;;;7.10;99.90;;;;;;4928562;28;20065;-60
2022/04/16 05:48:35;;;;;;;19.45;13.05;;;7.10;99.90;;;;;;4928196;28;20207;-59
2022/04/16 05:51:02;;;;;;;;;;;7.20;99.90;;;;;;4929865;28;20069;-60
2022/04/16 05:53:31;;;;;;;14.95;11.18;;;7.30;99.90;;;;;;4931054;28;19925;-60
2022/04/16 05:55:58;;;;;;;18.42;11.52;;;7.30;99.90;;;;;;4933724;28;20148;-58
2022/04/16 05:58:26;;;;;;;17.92;13.55;;;7.40;99.90;;;;;;4934314;28;20338;-60
2022/04/16 06:00:54;;;;;;;17.70;13.38;;;7.40;99.90;;;;;;4936296;28;20042;-60
2022/04/16 06:03:21;;;;;;;17.90;12.93;;;7.50;99.90;;;;;;4925713;28;20291;-61
2022/04/16 06:05:49;;;;;;;17.35;12.75;;;7.50;99.90;;;;;;4928294;28;20057;-59
2022/04/16 06:08:16;;;;;;;19.95;12.30;;;7.60;99.90;;;;;;4929813;28;20200;-60
2022/04/16 06:10:43;;;;;;;20.02;12.02;;;7.60;99.90;;;;;;4931480;28;20806;-59
2022/04/16 06:13:11;;;;;;;18.05;12.27;;;7.70;99.90;;;;;;4928951;28;20054;-60
2022/04/16 06:15:43;;;;;;;14.95;11.68;;;7.70;99.90;;;;;;4929617;28;20213;-60
2022/04/16 06:18:10;;;;;;;17.65;12.43;;;7.80;99.90;;;;;;4930503;28;20042;-60
2022/04/16 06:20:38;;;;;;;16.05;11.77;;;7.80;99.90;;;;;;4930872;28;20053;-60
2022/04/16 06:23:06;;;;;;;23.60;12.48;;;7.90;99.90;;;;;;4929943;28;20577;-60
2022/04/16 06:25:33;;;;;;;14.75;11.18;;;7.90;99.90;;;;;;4930673;28;20066;-60
2022/04/16 06:28:01;;;;;;;21.52;12.98;;;8.00;99.90;;;;;;4929039;28;20049;-59
2022/04/16 06:30:29;;;;;;;19.80;12.70;;;8.00;99.90;;;;;;4916336;28;20034;-60
2022/04/16 06:32:56;;;;;;;14.13;11.02;;;8.00;99.90;;;;;;4925583;28;20042;-60
2022/04/16 06:35:23;;;;;;;16.63;11.88;;;8.00;99.90;;;;;;4929588;28;20049;-60
2022/04/16 06:37:50;;;;;;;17.20;10.23;;;8.00;99.90;;;;;;4929013;28;20043;-60
2022/04/16 06:40:17;;;;;;;15.10;10.90;;;8.00;99.90;;;;;;4929347;28;20137;-61
2022/04/16 06:42:44;;;;;;;18.38;12.18;;;8.00;99.90;;;;;;4930324;28;20046;-59
2022/04/16 06:45:13;;;;;;;19.60;13.65;;;8.00;99.90;;;;;;4926652;28;20046;-61
2022/04/16 06:47:40;;;;;;;22.83;13.40;;;8.00;99.90;;;;;;4912689;28;20225;-60
2022/04/16 06:50:08;;;;;;;18.10;12.50;;;8.10;99.90;;;;;;4931941;28;20102;-59
2022/04/16 06:52:35;;;;;;;22.17;12.88;;;8.10;99.90;;;;;;4932241;28;20046;-61
2022/04/16 06:55:04;;;;;;;19.02;12.77;;;8.20;99.90;;;;;;4928038;28;20216;-61
2022/04/16 06:57:31;;;;;;;20.63;13.15;;;8.20;99.90;;;;;;4928671;28;20865;-60
2022/04/16 07:00:04;;;;;;;20.45;13.10;;;8.20;99.90;;;;;;4932286;28;20042;-60
2022/04/16 07:02:31;;;;;;;19.88;13.23;;;8.30;99.90;;;;;;4947995;28;20157;-60
2022/04/16 07:04:59;;;;;;;15.63;10.82;;;8.30;99.90;;;;;;4928020;28;20220;-60
2022/04/16 07:07:26;;;;;;;15.65;10.77;;;8.30;99.90;;;;;;4925870;28;20912;-60
2022/04/16 07:09:53;;;;;;;17.65;11.05;;;8.30;99.90;;;;;;4929115;28;20811;-60
2022/04/16 07:12:20;;;;;;;15.77;11.25;;;8.40;99.90;;;;;;4927462;28;20858;-59
2022/04/16 07:14:47;;;;;;;14.90;10.65;;;8.40;99.90;;;;;;4930683;28;20129;-60
2022/04/16 07:17:19;;;;;;;18.08;10.15;;;8.30;99.90;;;;;;4923460;28;20483;-60
2022/04/16 07:19:46;;;;;;;14.35;9.60;;;8.40;99.90;;;;;;4930994;28;20047;-60
2022/04/16 07:22:13;;;;;;;18.67;11.57;;;8.40;99.90;;;;;;4932811;28;20592;-60
2022/04/16 07:24:42;;;;;;;11.70;10.13;;;8.50;99.90;;;;;;4927391;28;20045;-60
2022/04/16 07:27:10;;;;;;;13.68;9.95;;;8.50;99.90;;;;;;4925022;28;20072;-58
2022/04/16 07:29:37;;;;;;;17.13;11.32;;;8.60;99.90;;;;;;4929521;28;20057;-57
2022/04/16 07:32:05;;;;;;;16.17;10.95;;;8.70;99.90;;;;;;4927233;28;20038;-58
2022/04/16 07:34:32;;;;;;;15.95;11.20;;;8.70;99.90;;;;;;4925591;28;20621;-61
2022/04/16 07:36:59;;;;;;;18.60;12.25;;;8.70;99.90;;;;;;4928513;28;20142;-58
2022/04/16 07:39:26;;;;;;;15.48;10.80;;;8.70;99.90;;;;;;4930061;28;20054;-57
2022/04/16 07:41:53;;;;;;;15.05;10.85;;;8.80;99.90;;;;;;4927766;28;20050;-59
2022/04/16 07:44:20;;;;;;;14.43;9.90;;;8.80;99.90;;;;;;4928612;28;20304;-59
2022/04/16 07:46:47;;;;;;;16.63;11.05;;;8.80;99.90;;;;;;4927463;28;20221;-59
2022/04/16 07:49:17;;;;;;;15.45;10.60;;;8.70;99.90;;;;;;4925540;28;20207;-60
2022/04/16 07:51:45;;;;;;;16.23;11.25;;;8.70;99.90;;;;;;4934087;28;20579;-64
2022/04/16 07:54:13;;;;;;;16.00;11.20;;;8.70;99.90;;;;;;4933765;28;20049;-58
2022/04/16 07:56:40;;;;;;;11.65;9.25;;;8.60;99.90;;;;;;4927940;28;20555;-57
2022/04/16 07:59:07;;;;;;;12.35;9.52;;;8.60;99.90;;;;;;4930062;28;20830;-57
2022/04/16 08:01:34;;;;;;;13.35;10.05;;;8.60;99.90;;;;;;4923537;28;20551;-58
2022/04/16 08:04:02;;;;;;;16.00;9.90;;;8.60;99.90;;;;;;4928394;28;20209;-59
2022/04/16 08:06:29;;;;;;;13.73;10.10;;;8.60;99.90;;;;;;4927170;28;20324;-58
2022/04/16 08:09:03;;;;;;;14.13;9.70;;;8.60;99.90;;;;;;4926880;28;20563;-60
2022/04/16 08:11:31;;;;;;;14.88;9.73;;;8.60;99.90;;;;;;4948679;28;20042;-57
2022/04/16 08:13:59;;;;;;;10.35;8.48;;;8.60;99.90;;;;;;4953661;28;20497;-59
2022/04/16 08:16:26;;;;;;;12.93;8.70;;;8.60;99.90;;;;;;4934076;28;20038;-58
2022/04/16 08:18:53;;;;;;;15.80;10.60;;;8.70;99.90;;;;;;4929459;28;20042;-58
2022/04/16 08:21:20;;;;;;;13.05;8.68;;;8.70;99.90;;;;;;4911476;28;20042;-60
2022/04/16 08:26:44;;;;;;;11.45;9.13;;;8.90;99.90;;;;;;4959363;28;20151;-60
2022/04/16 08:29:11;;;;;;;18.65;10.65;;;9.00;99.90;;;;;;4946683;28;20038;-58
2022/04/16 08:31:38;;;;;;;13.90;10.15;;;9.20;99.90;;;;;;4934666;28;20660;-58
2022/04/16 08:34:25;;;;;;;11.20;8.93;;;9.20;99.90;;;;;;4927339;28;20122;-58
2022/04/16 08:36:52;;;;;;;13.45;9.23;;;9.30;99.90;;;;;;4929486;28;20057;-59
2022/04/16 08:39:19;;;;;;;14.68;9.52;;;9.40;99.90;;;;;;4928590;28;20061;-59
2022/04/16 08:41:47;;;;;;;16.15;11.73;;;9.40;99.90;;;;;;4929648;28;20042;-58
2022/04/16 08:44:19;;;;;;;18.27;12.02;;;9.40;99.90;;;;;;4927836;28;20548;-58
2022/04/16 08:46:46;;;;;;;15.30;10.93;;;9.40;99.90;;;;;;4929075;28;20576;-59
2022/04/16 08:49:14;;;;;;;15.52;10.20;;;9.30;99.90;;;;;;4928302;28;20053;-59
2022/04/16 08:51:43;;;;;;;13.90;10.18;;;9.40;99.90;;;;;;4929701;28;20039;-61
2022/04/16 08:54:10;;;;;;;15.52;10.93;;;9.30;99.90;;;;;;4929504;28;20137;-59
2022/04/16 08:56:39;;;;;;;19.20;10.95;;;9.40;99.90;;;;;;4930026;28;20054;-60
2022/04/16 08:59:06;;;;;;;17.42;11.63;;;9.40;99.90;;;;;;4933887;28;20042;-59
2022/04/16 09:01:34;;;;;;;13.68;10.65;;;9.40;99.90;;;;;;4930952;28;20050;-60
2022/04/16 09:04:01;;;;;;;17.55;12.77;;;9.30;99.90;;;;;;4931146;28;20053;-59
2022/04/16 09:06:29;;;;;;;19.10;11.23;;;9.30;99.90;;;;;;4933748;28;20038;-60
2022/04/16 09:08:56;;;;;;;18.40;12.60;;;9.30;99.90;;;;;;4930449;28;20637;-60
2022/04/16 09:11:24;;;;;;;18.05;13.32;;;9.30;99.90;;;;;;4932570;28;20153;-61
2022/04/16 09:13:54;;;;;;;17.30;11.75;;;9.20;99.90;;;;;;4929931;28;20819;-60
2022/04/16 09:16:23;;;;;;;17.08;11.65;;;9.10;99.90;;;;;;4931621;28;20141;-60
2022/04/16 09:18:55;;;;;;;15.05;10.85;;;9.10;99.90;;;;;;4929274;28;20070;-60
2022/04/16 09:21:27;;;;;;;17.40;11.82;;;9.10;99.90;;;;;;4934331;28;20038;-59
2022/04/16 09:23:59;;;;;;;16.40;10.90;;;9.10;99.90;;;;;;4931134;28;20513;-58
2022/04/16 09:26:34;;;;;;;16.17;11.30;;;9.10;99.90;;;;;;4946688;28;20432;-56
2022/04/16 09:29:09;;;;;;;17.88;10.82;;;9.20;99.90;;;;;;4932924;28;20590;-61
2022/04/16 09:31:41;;;;;;;13.80;10.73;;;9.20;99.90;;;;;;4947422;28;20061;-60
2022/04/16 09:34:17;;;;;;;15.57;11.15;;;9.20;99.90;;;;;;4933030;28;20049;-60
2022/04/16 09:36:45;;;;;;;16.47;11.83;;;9.30;99.90;;;;;;4915072;28;20049;-56
2022/04/16 09:39:13;;;;;;;14.93;11.32;;;9.20;99.90;;;;;;4934632;28;20138;-57
2022/04/16 09:41:42;;;;;;;15.63;10.35;;;9.30;99.90;;;;;;4933234;28;20057;-60
2022/04/16 09:44:28;;;;;;;16.58;10.95;;;9.30;99.90;;;;;;4930319;28;20034;-59
2022/04/16 09:46:56;;;;;;;15.70;10.35;;;9.30;99.90;;;;;;4931271;28;20610;-59
2022/04/16 09:49:24;;;;;;;14.43;9.73;;;9.30;99.90;;;;;;4930902;28;20189;-59
2022/04/16 09:51:52;;;;;;;12.25;9.38;;;9.40;99.90;;;;;;4931449;28;20034;-60
2022/04/16 09:54:21;;;;;;;11.90;9.60;;;9.50;99.90;;;;;;4929509;28;20056;-59
2022/04/16 09:56:49;;;;;;;12.82;9.13;;;9.60;99.90;;;;;;4947943;28;20372;-60
2022/04/16 09:59:17;;;;;;;10.82;8.60;;;9.70;99.90;;;;;;4930301;28;20658;-59
2022/04/16 10:01:48;;;;;;;11.90;8.02;;;9.70;99.90;;;;;;4948022;28;20042;-59
2022/04/16 10:04:20;;;;;;;11.98;8.32;;;9.70;99.90;;;;;;4944981;28;20299;-59
2022/04/16 10:06:48;;;;;;;10.48;8.55;;;9.80;99.90;;;;;;4943843;28;20675;-61
2022/04/16 10:09:22;;;;;;;12.50;8.15;;;9.80;99.90;;;;;;4948299;28;20049;-59
2022/04/16 10:15:06;;;;;;;8.75;7.22;;;10.00;99.90;;;;;;4950240;28;20547;-61
2022/04/16 10:17:42;;;;;;;11.70;7.82;;;10.10;99.90;;;;;;4942279;28;20310;-59
2022/04/16 10:20:17;;;;;;;12.40;7.88;;;10.20;99.90;;;;;;4933548;28;20077;-59
2022/04/16 10:22:59;;;;;;;8.93;7.10;;;10.30;99.90;;;;;;4930263;28;20343;-59
2022/04/16 10:25:40;;;;;;;7.53;6.38;;;10.40;99.90;;;;;;4924324;28;20042;-61
2022/04/16 10:28:09;;;;;;;10.57;7.20;;;10.50;99.90;;;;;;4923401;28;20185;-60
2022/04/16 10:30:39;;;;;;;13.10;7.53;;;10.70;99.90;;;;;;4915998;28;20034;-59
2022/04/16 10:33:20;;;;;;;5.80;5.20;;;10.80;99.90;;;;;;4929835;28;20465;-60
2022/04/16 10:35:50;;;;;;;6.78;5.63;;;10.90;99.90;;;;;;4931516;28;20090;-60
2022/04/16 10:38:25;;;;;;;7.38;5.95;;;11.10;99.90;;;;;;4929731;28;20112;-59
2022/04/16 10:40:57;;;;;;;6.88;5.70;;;11.20;99.90;;;;;;4925278;28;20490;-62
2022/04/16 10:43:52;;;;;;;7.07;5.50;;;11.30;99.90;;;;;;4910250;28;20846;-60
2022/04/16 10:46:19;;;;;;;8.15;5.30;;;11.40;99.90;;;;;;4927519;28;20503;-60
2022/04/16 10:48:48;;;;;;;9.30;5.45;;;11.50;99.90;;;;;;4927094;28;20038;-59
2022/04/16 10:51:21;;;;;;;10.07;5.68;;;11.60;99.90;;;;;;4927425;28;20411;-60
2022/04/16 10:53:48;;;;;;;7.20;5.75;;;11.60;99.90;;;;;;4931824;28;20339;-60
2022/04/16 10:56:17;;;;;;;6.93;4.88;;;11.70;99.90;;;;;;4931477;28;20133;-60
2022/04/16 10:59:00;;;;;;;4.60;4.15;;;11.70;99.90;;;;;;4928648;28;20050;-60
2022/04/16 11:01:29;;;;;;;5.70;4.65;;;11.70;99.90;;;;;;4931711;28;20548;-60
2022/04/16 11:03:57;;;;;;;5.53;4.32;;;11.70;99.90;;;;;;4925932;28;20157;-59
2022/04/16 11:06:35;;;;;;;6.00;4.28;;;11.60;99.90;;;;;;4928186;28;20047;-60
2022/04/16 11:09:02;;;;;;;4.63;3.97;;;11.50;99.90;;;;;;4928982;28;20795;-60
2022/04/16 11:11:29;;;;;;;6.15;3.80;;;11.50;99.90;;;;;;4929409;28;20553;-60
2022/04/16 11:13:56;;;;;;;;;;;11.50;99.90;;;;;;4930512;28;20286;-60
2022/04/16 11:16:23;;;;;;;7.03;4.55;;;11.70;99.90;;;;;;4927191;28;20696;-60
2022/04/16 11:18:50;;;;;;;4.72;3.55;;;12.10;99.90;;;;;;4928923;28;20046;-60
2022/04/16 11:21:22;;;;;;;4.15;3.72;;;12.30;99.90;;;;;;4927797;28;20504;-59
2022/04/16 11:23:51;;;;;;;4.55;3.88;;;12.40;99.90;;;;;;4930659;28;20120;-60
2022/04/16 11:34:53;;;;;;;6.00;3.85;;;12.50;99.90;;;;;;4930774;28;20249;-60
2022/04/16 11:37:32;;;;;;;6.03;4.07;;;12.40;99.90;;;;;;4928429;28;20050;-60
2022/04/16 11:40:03;;;;;;;6.70;4.22;;;12.40;99.90;;;;;;4927179;28;20555;-60
2022/04/16 11:42:30;;;;;;;6.97;4.18;;;12.40;99.90;;;;;;4927476;28;20124;-60
2022/04/16 11:44:58;;;;;;;4.60;4.15;;;12.30;99.90;;;;;;4925914;28;20906;-60
2022/04/16 11:47:30;;;;;;;6.13;4.55;;;12.20;99.90;;;;;;4924858;28;20250;-59
2022/04/16 11:50:06;;;;;;;5.10;3.90;;;12.20;99.90;;;;;;4929324;28;20590;-60
2022/04/16 11:52:34;;;;;;;4.50;3.90;;;12.30;99.90;;;;;;4910084;28;20346;-59
2022/04/16 11:55:21;;;;;;;4.43;3.67;;;12.30;99.90;;;;;;4926867;28;20069;-60
2022/04/16 11:57:53;;;;;;;4.18;3.58;;;12.40;99.90;;;;;;4929338;28;20046;-63
2022/04/16 12:00:22;;;;;;;4.20;3.70;;;12.50;99.90;;;;;;4928498;28;20402;-63
2022/04/16 12:02:55;;;;;;;5.03;4.03;;;12.70;99.90;;;;;;4924512;28;20132;-63
2022/04/16 12:05:28;;;;;;;3.72;3.35;;;13.00;99.90;;;;;;4926693;28;20266;-63
2022/04/16 12:07:55;;;;;;;4.85;3.70;;;13.30;99.90;;;;;;4927469;28;20578;-62
2022/04/16 12:10:24;;;;;;;4.28;3.45;;;13.50;99.90;;;;;;4930029;28;20129;-62
2022/04/16 12:12:54;;;;;;;4.28;3.33;;;13.60;99.60;;;;;;4927095;28;20472;-60
2022/04/16 12:15:26;;;;;;;5.15;3.50;;;13.60;97.00;;;;;;4926397;28;20838;-62
2022/04/16 12:17:55;;;;;;;5.35;4.28;;;13.60;96.50;;;;;;4924332;28;20046;-60
2022/04/16 12:20:23;;;;;;;6.20;3.72;;;13.40;94.70;;;;;;4929230;28;20050;-62
2022/04/16 12:23:05;;;;;;;5.75;3.95;;;13.30;96.70;;;;;;4926243;28;20066;-61
2022/04/16 12:25:32;;;;;;;5.75;4.25;;;13.20;96.30;;;;;;4890844;28;20880;-62
2022/04/16 12:28:00;;;;;;;5.93;4.78;;;13.20;96.60;;;;;;4921259;28;20199;-63
2022/04/16 12:30:31;;;;;;;5.97;4.55;;;13.20;93.50;;;;;;4943381;28;20489;-63
2022/04/16 12:33:11;;;;;;;4.63;3.97;;;13.10;97.70;;;;;;4926010;28;20161;-56
2022/04/16 12:35:48;;;;;;;4.20;3.75;;;13.10;98.20;;;;;;4938903;28;20034;-56
2022/04/16 12:38:17;;;;;;;6.93;4.25;;;13.10;94.30;;;;;;4948989;28;20091;-56
2022/04/16 12:40:45;;;;;;;5.45;4.25;;;13.10;94.90;;;;;;4932227;28;20462;-57
2022/04/16 12:43:12;;;;;;;4.68;4.18;;;13.10;94.60;;;;;;4924733;28;20568;-62
2022/04/16 12:45:39;;;;;;;4.28;3.83;;;13.10;95.90;;;;;;4944048;28;20038;-62
2022/04/16 12:48:06;;;;;;;5.00;3.88;;;13.10;95.30;;;;;;4926070;28;20140;-63
2022/04/16 12:50:33;;;;;;;5.13;4.30;;;13.20;95.80;;;;;;4925684;28;20515;-63
2022/04/16 12:53:01;;;;;;;4.68;4.22;;;13.30;96.70;;;;;;4927658;28;20192;-63
2022/04/16 12:55:35;;;;;;;5.03;4.15;;;13.40;93.80;;;;;;4925493;28;20053;-63
2022/04/16 12:58:02;;;;;;;5.35;4.75;;;13.50;94.60;;;;;;4908199;28;20432;-63
2022/04/16 13:00:31;;;;;;;5.93;4.70;;;13.50;93.90;;;;;;4929008;28;20799;-63
2022/04/16 13:02:59;;;;;;;6.32;4.85;;;13.50;95.40;;;;;;4928880;28;20156;-63
2022/04/16 13:05:32;;;;;;;6.15;4.63;;;13.50;95.30;;;;;;4922709;28;20549;-63
2022/04/16 13:08:06;;;;;;;5.88;4.43;;;13.50;94.60;;;;;;4907421;28;20042;-63
2022/04/16 13:10:33;;;;;;;4.57;4.15;;;13.40;91.30;;;;;;4907413;28;20891;-62
2022/04/16 13:13:01;;;;;;;6.00;4.95;;;13.40;93.80;;;;;;4910727;28;20046;-63
2022/04/16 13:15:28;;;;;;;5.68;4.75;;;13.50;93.70;;;;;;4923022;28;20156;-62
2022/04/16 13:17:57;;;;;;;5.18;4.68;;;13.80;91.80;;;;;;4926119;28;20810;-62
2022/04/16 13:20:24;;;;;;;5.28;4.78;;;14.00;90.60;;;;;;4926659;28;20600;-62
2022/04/16 13:22:51;;;;;;;6.65;4.57;;;13.90;91.10;;;;;;4928108;28;20476;-63
2022/04/16 13:25:18;;;;;;;5.03;4.43;;;13.80;92.00;;;;;;4930051;28;20637;-63